Quincy, WA

12:54 AM PST on December 20, 2014 (GMT -0800)
Winchester | Change Station
CLOSE
Current Station
Personal Weather Station
Location: Quincy, WA
Elevation: 1350 ft
Nearby Weather Stations

Elev 1350 ft 47.26 °N, 119.72 °W | Updated 3 minutes ago

Overcast
Overcast
33.1 °F
Feels Like 33 °F
N
0.0
Wind Variable Wind from NNW
Gusts 6.0 mph

Today
High -- | Low -- °F
--% Chance of Precip.
Yesterday
High -- | Low -- °F
Precip. -- in
7:42 AM 4:11 PM
Waning Crescent, 4% visible
Pressure 29.94 in
Visibility 5.0 miles
Clouds Mostly Cloudy 800 ft
Windchill 33 °F
Dew Point 32 °F
Humidity 95%
Rainfall -999.00 in
Snow Depth Not available.
UV 0 out of 12
Pollen .50 out of 12
Air Quality Not available.
Flu Activity Not available.
SPECI KEPH 200821Z AUTO 04005KT 5SM BR BKN008 01/01 A2994 RMK AO2 T00110006

More Conditions Fewer Conditions

Pressure 29.94 in
Visibility 5.0 miles
Clouds Mostly Cloudy 800 ft
Windchill 33 °F
Dew Point 32 °F
Humidity 95%
Rainfall -999.00 in
Snow Depth Not available.
UV 0 out of 12
Pollen .50 out of 12
Air Quality Not available.
Flu Activity Not available.
SPECI KEPH 200821Z AUTO 04005KT 5SM BR BKN008 01/01 A2994 RMK AO2 T00110006

More Conditions Fewer Conditions

10-Day Weather Forecast

Almanac

Astronomy

Dec. 20, 2014 Rise Set
Actual Time
Civil Twilight
Nautical Twilight
Astronomical Twilight
Moon
Length of Visible Light
Length of Day
Tomorrow will be .
, % of the Moon is Illuminated

Today's Extremes

State Highs State Lows

Community

WunderPhotos

Upload Photos

1,779,146 photos uploaded!

WunderBlogs® & News

Nearby

Air Quality

  Air Quality AQ Index Pollutant
Not available.

Snow Depth

Station Depth Elevation

Earthquake Activity

City Distance Mag. Time & Date
Minimum magnitude displayed is 2.5.

Coastal Water Temperatures

Place Temperature

Nearby Weather Stations